Time;durP1;ratioP1;P1;durP2;ratioP2;P2;SDS_P1;SDS_P2;PMS_P1;PMS_P2;Temp;Humidity;BMP_temperature;BMP_pressure;BME280_temperature;BME280_humidity;BME280_pressure;Samples;Min_cycle;Max_cycle;Signal;HPM_P1;HPM_P2
2021/08/29 00:00:29;;;;;;;6.43;4.38;;;;;;;17.34;72.06;100597.09;5022764;28;20057;-82
2021/08/29 00:02:56;;;;;;;6.63;4.68;;;;;;;17.35;71.83;100603.56;5021966;28;20053;-81
2021/08/29 00:05:24;;;;;;;6.93;4.65;;;;;;;17.35;71.81;100601.56;5023126;28;20049;-80
2021/08/29 00:07:51;;;;;;;6.10;4.70;;;;;;;17.35;72.02;100592.28;5023420;28;20053;-81
2021/08/29 00:10:19;;;;;;;6.68;4.25;;;;;;;17.37;72.13;100596.38;5023263;28;20058;-81
2021/08/29 00:12:46;;;;;;;6.95;4.68;;;;;;;17.41;71.83;100591.69;5022892;28;20050;-81
2021/08/29 00:15:15;;;;;;;6.45;4.35;;;;;;;17.41;71.86;100591.69;5022280;28;20487;-81
2021/08/29 00:17:42;;;;;;;9.00;6.55;;;;;;;17.42;71.06;100590.47;5022061;28;20050;-82
2021/08/29 00:20:11;;;;;;;9.73;7.30;;;;;;;17.41;71.28;100593.69;5022172;28;20049;-81
2021/08/29 00:22:38;;;;;;;7.75;6.15;;;;;;;17.35;71.52;100587.47;5030266;28;20057;-81
2021/08/29 00:25:07;;;;;;;7.90;6.10;;;;;;;17.35;71.38;100587.47;5040910;28;20064;-81
2021/08/29 00:27:34;;;;;;;9.88;6.82;;;;;;;17.37;71.39;100584.31;5040766;28;20467;-81
2021/08/29 00:30:02;;;;;;;10.48;6.80;;;;;;;17.40;71.47;100589.22;5020335;28;20065;-81
2021/08/29 00:32:30;;;;;;;8.30;6.18;;;;;;;17.35;71.26;100584.66;5021311;28;20068;-80
2021/08/29 00:34:58;;;;;;;8.93;6.47;;;;;;;17.38;71.19;100580.31;5022450;28;20471;-80
2021/08/29 00:37:25;;;;;;;8.52;5.70;;;;;;;17.30;71.56;100579.25;5022435;28;21020;-80
2021/08/29 00:39:52;;;;;;;6.93;5.40;;;;;;;17.33;71.42;100581.38;5020528;28;20061;-81
2021/08/29 00:42:20;;;;;;;7.65;5.20;;;;;;;17.28;71.63;100578.81;5022018;28;20395;-81
2021/08/29 00:44:47;;;;;;;8.75;5.45;;;;;;;17.29;71.69;100576.81;5022557;28;20491;-80
2021/08/29 00:47:14;;;;;;;8.02;5.10;;;;;;;17.33;71.20;100575.75;5018359;28;20054;-79
2021/08/29 00:49:43;;;;;;;8.18;5.57;;;;;;;17.31;71.04;100580.09;5021437;28;20060;-81
2021/08/29 00:52:10;;;;;;;7.10;5.63;;;;;;;17.33;71.11;100578.56;5021590;28;20052;-81
2021/08/29 00:54:39;;;;;;;7.90;5.53;;;;;;;17.28;71.21;100575.97;5022207;28;20068;-80
2021/08/29 00:57:08;;;;;;;6.55;5.45;;;;;;;17.28;71.64;100573.16;5039823;28;20418;-81
2021/08/29 00:59:38;;;;;;;8.68;6.10;;;;;;;17.22;71.50;100569.81;5041543;28;20486;-81
2021/08/29 01:02:10;;;;;;;8.80;6.05;;;;;;;17.21;71.60;100567.34;5042233;28;20053;-80
2021/08/29 01:04:47;;;;;;;7.55;6.15;;;;;;;17.19;71.95;100570.50;5044992;28;20049;-80
2021/08/29 01:07:23;;;;;;;8.55;5.80;;;;;;;17.20;71.95;100566.53;5001886;28;20057;-81
2021/08/29 01:09:58;;;;;;;8.98;6.32;;;;;;;17.18;71.86;100563.25;5005065;28;20426;-80
2021/08/29 01:12:30;;;;;;;7.53;5.68;;;;;;;17.21;71.60;100558.91;5021465;28;20062;-81
2021/08/29 01:14:58;;;;;;;8.13;5.85;;;;;;;17.25;71.58;100568.28;5026803;28;20054;-80
2021/08/29 01:17:29;;;;;;;9.38;6.57;;;;;;;17.27;71.25;100562.28;5020819;28;20057;-81
2021/08/29 01:20:10;;;;;;;8.20;6.15;;;;;;;17.30;70.91;100561.56;5020928;28;20046;-81
2021/08/29 01:22:40;;;;;;;8.80;6.22;;;;;;;17.22;71.57;100560.56;5021020;28;20057;-80
2021/08/29 01:25:12;;;;;;;10.23;6.45;;;;;;;17.18;71.64;100566.06;5033297;28;20057;-81
2021/08/29 01:27:47;;;;;;;9.98;7.07;;;;;;;17.15;71.72;100560.31;5040528;28;20046;-81
2021/08/29 01:30:16;;;;;;;12.52;6.53;;;;;;;17.21;71.51;100558.91;5040207;28;20060;-81
2021/08/29 01:32:44;;;;;;;8.45;6.43;;;;;;;17.21;71.86;100567.34;5040497;28;20057;-81
2021/08/29 01:35:15;;;;;;;10.68;6.38;;;;;;;17.23;71.76;100559.38;5041704;28;20052;-81
2021/08/29 01:37:44;;;;;;;9.98;5.85;;;;;;;17.25;71.51;100559.81;5040500;28;20049;-81
2021/08/29 01:40:13;;;;;;;14.70;6.10;;;;;;;17.28;71.51;100563.91;5040325;28;20049;-81
2021/08/29 01:42:41;;;;;;;7.10;4.97;;;;;;;17.32;71.77;100568.47;5022750;28;20050;-81
2021/08/29 01:45:11;;;;;;;7.72;5.20;;;;;;;17.33;71.58;100556.03;5020163;28;20050;-81
2021/08/29 01:47:40;;;;;;;9.65;5.45;;;;;;;17.34;71.73;100557.66;5019424;28;20494;-81
2021/08/29 01:50:08;;;;;;;7.17;5.40;;;;;;;17.36;71.44;100565.75;5020015;28;20053;-81
2021/08/29 01:52:36;;;;;;;7.50;5.55;;;;;;;17.40;71.15;100558.22;5019165;28;20833;-81
2021/08/29 01:55:04;;;;;;;8.07;5.85;;;;;;;17.38;71.00;100561.41;5024338;28;20053;-81
2021/08/29 01:57:31;;;;;;;9.93;5.95;;;;;;;17.40;71.35;100561.88;5038861;28;20045;-81
2021/08/29 01:59:59;;;;;;;9.02;5.38;;;;;;;17.40;71.50;100553.41;5038696;28;20057;-81
2021/08/29 02:02:26;;;;;;;8.43;5.20;;;;;;;17.47;71.30;100557.63;5039284;28;20064;-80
2021/08/29 02:04:55;;;;;;;8.98;5.30;;;;;;;17.47;71.19;100555.63;5027957;28;20058;-80
2021/08/29 02:07:27;;;;;;;7.82;4.60;;;;;;;17.47;71.12;100558.47;5019486;28;20054;-80
2021/08/29 02:10:00;;;;;;;9.35;4.70;;;;;;;17.50;70.91;100559.72;5019727;28;20463;-80
2021/08/29 02:12:32;;;;;;;6.93;4.70;;;;;;;17.52;70.88;100563.00;5019771;28;20054;-81
2021/08/29 02:15:02;;;;;;;8.40;4.93;;;;;;;17.54;70.66;100566.28;5019111;28;20402;-82
2021/08/29 02:17:31;;;;;;;9.80;4.88;;;;;;;17.48;70.55;100548.00;5019543;28;20390;-82
2021/08/29 02:20:07;;;;;;;9.17;5.03;;;;;;;17.57;70.17;100554.28;5020493;28;20129;-80
2021/08/29 02:22:35;;;;;;;8.15;4.93;;;;;;;17.47;70.54;100543.53;5019992;28;20065;-81
2021/08/29 02:25:05;;;;;;;7.45;4.75;;;;;;;17.42;70.87;100553.88;5035043;28;20058;-81
2021/08/29 02:27:33;;;;;;;;;;;;;;;17.38;70.67;100543.69;5039311;28;20049;-82
2021/08/29 02:30:01;;;;;;;8.23;4.82;;;;;;;17.33;70.94;100539.16;5038470;28;19921;-82
2021/08/29 02:32:29;;;;;;;7.45;4.80;;;;;;;17.34;71.43;100537.16;5038154;28;20076;-82
2021/08/29 02:34:57;;;;;;;9.63;5.63;;;;;;;17.34;71.21;100549.22;5038822;28;20061;-81
2021/08/29 02:37:28;;;;;;;10.40;6.00;;;;;;;17.36;71.38;100538.41;5040158;28;20053;-82
2021/08/29 02:39:58;;;;;;;9.95;6.35;;;;;;;17.22;71.87;100538.84;5029562;28;20050;-81
2021/08/29 02:42:28;;;;;;;10.75;6.47;;;;;;;17.23;71.96;100539.66;5018844;28;20050;-82
2021/08/29 02:44:56;;;;;;;9.15;6.15;;;;;;;17.26;72.03;100538.97;5018679;28;20050;-82
2021/08/29 02:47:24;;;;;;;9.13;6.72;;;;;;;17.27;72.16;100537.75;5011665;28;20057;-81
2021/08/29 02:49:55;;;;;;;9.00;6.05;;;;;;;17.30;72.02;100539.03;5000421;28;20054;-82
2021/08/29 02:52:22;;;;;;;7.80;5.80;;;;;;;17.31;71.96;100540.69;4999429;28;20058;-82
2021/08/29 02:54:52;;;;;;;13.65;6.25;;;;;;;17.34;71.76;100534.31;5001754;28;20055;-81
2021/08/29 02:57:21;;;;;;;;;;;;;;;17.32;72.05;100525.41;5019232;28;20050;-82
2021/08/29 02:59:49;;;;;;;8.03;5.80;;;;;;;17.34;71.85;100526.69;5019538;28;19921;-80
2021/08/29 03:02:16;;;;;;;11.38;5.70;;;;;;;17.36;71.91;100526.34;5018759;28;20480;-81
2021/08/29 03:04:44;;;;;;;9.73;6.70;;;;;;;17.39;72.03;100531.28;5019868;28;20046;-82
2021/08/29 03:07:12;;;;;;;8.80;6.03;;;;;;;17.40;71.81;100525.25;5019062;28;20054;-81
2021/08/29 03:09:39;;;;;;;8.68;5.60;;;;;;;17.43;71.62;100524.56;5019016;28;20050;-82
2021/08/29 03:12:13;;;;;;;9.00;6.13;;;;;;;17.49;71.34;100519.50;5026749;28;20045;-82
2021/08/29 03:14:41;;;;;;;10.35;5.80;;;;;;;17.43;71.46;100521.75;5039162;28;20061;-82
2021/08/29 03:17:09;;;;;;;11.23;6.05;;;;;;;17.39;71.89;100520.00;5038657;28;20061;-82
2021/08/29 03:19:38;;;;;;;9.43;5.80;;;;;;;17.30;72.15;100528.59;5038918;28;20064;-81
2021/08/29 03:22:06;;;;;;;11.20;6.57;;;;;;;17.37;72.09;100516.72;5038714;28;20037;-81
2021/08/29 03:24:34;;;;;;;10.68;6.00;;;;;;;17.32;72.28;100531.88;5027754;28;20050;-81
2021/08/29 03:27:02;;;;;;;8.55;5.80;;;;;;;17.34;71.86;100520.25;5020912;28;20058;-81
2021/08/29 03:29:31;;;;;;;8.10;5.78;;;;;;;17.41;71.70;100517.66;5032500;28;20049;-82
2021/08/29 03:32:00;;;;;;;7.93;5.72;;;;;;;17.38;71.98;100512.72;5042307;28;20056;-82
2021/08/29 03:34:28;;;;;;;8.25;6.30;;;;;;;17.40;72.07;100510.38;5042479;28;20474;-81
2021/08/29 03:36:57;;;;;;;11.73;7.03;;;;;;;17.42;71.81;100510.81;5043171;28;20060;-81
2021/08/29 03:39:27;;;;;;;8.73;6.03;;;;;;;17.44;71.55;100509.28;5041963;28;20056;-81
2021/08/29 03:41:57;;;;;;;10.13;6.57;;;;;;;17.40;71.75;100504.75;5026806;28;20058;-81
2021/08/29 03:44:24;;;;;;;;;;;;;;;17.38;72.14;100501.47;5023478;28;20068;-81
2021/08/29 03:46:53;;;;;;;10.13;6.97;;;;;;;17.37;72.20;100506.28;5023429;28;19922;-82
2021/08/29 03:49:21;;;;;;;;;;;;;;;17.40;71.74;100507.56;5022888;28;20423;-82
2021/08/29 03:51:49;;;;;;;14.05;8.93;;;;;;;17.43;71.83;100504.84;5022289;28;19928;-81
2021/08/29 03:54:16;;;;;;;10.43;8.88;;;;;;;17.42;71.91;100497.56;5021778;28;20065;-82
2021/08/29 03:56:44;;;;;;;13.85;9.85;;;;;;;17.40;72.36;100499.91;5021691;28;20057;-82
2021/08/29 03:59:12;;;;;;;16.73;9.88;;;;;;;17.36;72.66;100499.00;5021544;28;20061;-81
2021/08/29 04:01:39;;;;;;;11.20;8.75;;;;;;;17.41;72.28;100495.94;5021937;28;20050;-82
2021/08/29 04:04:09;;;;;;;10.95;8.57;;;;;;;17.42;72.41;100499.56;5021815;28;20064;-81
2021/08/29 04:06:38;;;;;;;11.73;8.25;;;;;;;17.40;72.24;100496.28;5021656;28;20093;-82
2021/08/29 04:09:10;;;;;;;12.32;8.50;;;;;;;17.45;72.23;100494.03;5022271;28;20057;-82
2021/08/29 04:11:42;;;;;;;12.55;7.40;;;;;;;17.39;72.45;100489.84;5022636;28;20058;-82
2021/08/29 04:14:13;;;;;;;12.73;7.97;;;;;;;17.44;72.32;100494.38;5021761;28;20054;-82
2021/08/29 04:16:40;;;;;;;15.15;8.85;;;;;;;17.49;72.24;100490.47;5022024;28;20487;-82
2021/08/29 04:19:09;;;;;;;10.88;8.02;;;;;;;17.42;72.15;100491.94;5022723;28;20053;-81
2021/08/29 04:21:37;;;;;;;15.75;9.35;;;;;;;17.45;72.36;100490.41;5022282;28;20058;-81
2021/08/29 04:24:05;;;;;;;15.32;8.68;;;;;;;17.44;72.03;100483.94;5022317;28;20046;-80
2021/08/29 04:26:33;;;;;;;11.68;7.80;;;;;;;17.41;72.47;100486.69;5021975;28;20065;-81
2021/08/29 04:29:01;;;;;;;11.45;8.70;;;;;;;17.40;72.53;100487.84;5021958;28;20061;-82
2021/08/29 04:31:31;;;;;;;13.85;8.70;;;;;;;17.42;72.28;100485.47;5021341;28;20053;-82
2021/08/29 04:34:01;;;;;;;;;;;;;;;17.24;72.71;100491.44;5022171;28;20060;-82
2021/08/29 04:36:31;;;;;;;15.48;8.60;;;;;;;17.33;72.55;100485.66;5021687;28;19929;-82
2021/08/29 04:38:59;;;;;;;15.40;9.13;;;;;;;17.35;72.65;100472.03;5021457;28;20053;-81
2021/08/29 04:41:29;;;;;;;13.50;7.43;;;;;;;17.35;72.70;100476.84;5023467;28;20050;-81
2021/08/29 04:43:59;;;;;;;10.55;7.63;;;;;;;17.34;72.68;100475.22;5022891;28;20114;-81
2021/08/29 04:46:26;;;;;;;;;;;;;;;17.29;72.63;100475.47;5023059;28;20057;-81
2021/08/29 04:48:53;;;;;;;13.40;8.00;;;;;;;17.31;72.81;100478.75;5002868;28;19929;-81
2021/08/29 04:51:21;;;;;;;11.73;7.78;;;;;;;17.33;72.75;100477.22;5003138;28;20065;-81
2021/08/29 04:53:49;;;;;;;12.77;7.18;;;;;;;17.30;72.96;100485.53;5002428;28;20055;-80
2021/08/29 04:56:17;;;;;;;16.83;7.82;;;;;;;17.29;73.21;100487.56;5030887;28;20045;-82
2021/08/29 04:58:44;;;;;;;10.57;7.28;;;;;;;17.34;72.87;100481.66;5041472;28;20065;-81
2021/08/29 05:01:11;;;;;;;8.98;6.40;;;;;;;17.30;73.13;100489.19;5041088;28;20061;-82
2021/08/29 05:03:39;;;;;;;12.98;7.13;;;;;;;17.31;73.00;100488.00;5041469;28;20061;-82
2021/08/29 05:06:06;;;;;;;14.55;7.13;;;;;;;17.32;73.09;100478.38;5042563;28;20064;-81
2021/08/29 05:08:33;;;;;;;12.98;6.80;;;;;;;17.34;73.06;100478.03;5040077;28;20076;-82
2021/08/29 05:11:02;;;;;;;14.90;7.25;;;;;;;17.33;72.96;100482.84;5040426;28;20050;-82
2021/08/29 05:13:30;;;;;;;16.23;6.40;;;;;;;17.31;73.27;100476.75;5040836;28;20049;-81
2021/08/29 05:15:57;;;;;;;14.82;7.00;;;;;;;17.29;73.36;100473.47;5040927;28;20033;-82
2021/08/29 05:18:25;;;;;;;13.55;6.18;;;;;;;17.32;73.45;100474.75;5026001;28;20037;-81
2021/08/29 05:20:52;;;;;;;12.50;6.70;;;;;;;17.32;73.70;100481.19;5020942;28;20060;-81
2021/08/29 05:23:19;;;;;;;15.60;7.07;;;;;;;17.36;73.86;100479.28;5021274;28;20050;-81
2021/08/29 05:25:46;;;;;;;15.52;7.35;;;;;;;17.31;74.26;100484.38;5040894;28;20057;-81
2021/08/29 05:28:15;;;;;;;15.50;7.40;;;;;;;17.30;74.96;100482.72;5040925;28;20375;-82
2021/08/29 05:30:43;;;;;;;15.87;9.00;;;;;;;17.30;74.79;100477.09;5041962;28;20053;-82
2021/08/29 05:33:10;;;;;;;16.55;8.43;;;;;;;17.29;75.30;100481.13;5040936;28;20056;-82
2021/08/29 05:35:37;;;;;;;18.27;8.05;;;;;;;17.29;75.02;100484.75;5041088;28;20053;-81
2021/08/29 05:38:05;;;;;;;11.98;7.10;;;;;;;17.22;74.73;100482.53;5039238;28;20399;-82
2021/08/29 05:40:32;;;;;;;15.32;7.95;;;;;;;17.29;74.10;100484.75;5021537;28;20057;-82
2021/08/29 05:43:00;;;;;;;14.23;8.15;;;;;;;17.31;73.55;100482.38;5021112;28;20046;-81
2021/08/29 05:45:29;;;;;;;12.15;7.38;;;;;;;17.33;73.89;100490.47;5020552;28;20058;-81
2021/08/29 05:47:56;;;;;;;11.37;7.30;;;;;;;17.24;73.94;100485.00;5020940;28;20054;-82
2021/08/29 05:50:23;;;;;;;16.48;7.78;;;;;;;17.20;74.04;100484.09;5020377;28;20823;-81
2021/08/29 05:52:50;;;;;;;13.27;7.40;;;;;;;17.30;74.00;100482.72;5021641;28;20064;-81
2021/08/29 05:55:18;;;;;;;13.10;7.88;;;;;;;17.40;73.49;100490.66;5020160;28;20053;-81
2021/08/29 05:57:45;;;;;;;13.95;7.95;;;;;;;17.43;73.62;100492.78;5019988;28;20065;-80
2021/08/29 06:00:13;;;;;;;13.98;7.95;;;;;;;17.49;73.77;100485.69;5020075;28;20030;-82
2021/08/29 06:02:42;;;;;;;14.32;8.10;;;;;;;17.54;73.64;100481.78;5020521;28;20046;-81
2021/08/29 06:05:10;;;;;;;13.13;7.38;;;;;;;17.58;73.34;100489.16;5014155;28;20050;-82
2021/08/29 06:07:37;;;;;;;14.60;7.63;;;;;;;17.59;72.84;100485.13;5002587;28;20058;-82
2021/08/29 06:10:05;;;;;;;14.32;7.93;;;;;;;17.60;73.25;100478.34;5038802;28;20053;-82
2021/08/29 06:12:32;;;;;;;11.98;7.15;;;;;;;17.61;73.84;100485.59;5039519;28;20058;-82
2021/08/29 06:15:00;;;;;;;16.10;7.60;;;;;;;17.65;73.39;100485.69;5040327;28;20061;-82
2021/08/29 06:17:27;;;;;;;16.63;7.80;;;;;;;17.72;73.68;100483.06;5032710;28;20049;-82
2021/08/29 06:19:56;;;;;;;13.48;7.38;;;;;;;17.76;73.33;100480.34;5024106;28;20045;-82
2021/08/29 06:22:23;;;;;;;14.70;7.57;;;;;;;17.80;73.12;100484.88;5021202;28;20060;-82
2021/08/29 06:24:51;;;;;;;11.80;6.90;;;;;;;17.85;72.89;100473.38;5035257;28;20473;-82
2021/08/29 06:27:21;;;;;;;11.43;7.20;;;;;;;17.83;72.76;100477.75;5020602;28;20062;-81
2021/08/29 06:29:48;;;;;;;;;;;;;;;17.81;72.43;100469.63;5019537;28;20060;-82
2021/08/29 06:32:15;;;;;;;13.73;7.28;;;;;;;17.82;72.74;100473.25;5019595;28;19921;-81
2021/08/29 06:34:43;;;;;;;13.55;7.03;;;;;;;17.88;72.56;100468.19;5019955;28;20054;-81
2021/08/29 06:37:12;;;;;;;13.00;6.03;;;;;;;17.79;71.73;100466.34;5018611;28;20046;-82
2021/08/29 06:39:39;;;;;;;14.90;6.90;;;;;;;17.87;71.71;100467.38;5020778;28;20053;-82
2021/08/29 06:42:06;;;;;;;10.23;7.28;;;;;;;17.81;72.29;100463.97;5021998;28;20065;-82
2021/08/29 06:44:34;;;;;;;13.43;6.97;;;;;;;17.80;72.25;100459.53;5020142;28;20068;-81
2021/08/29 06:47:01;;;;;;;13.88;7.55;;;;;;;17.72;72.46;100468.97;5015210;28;20058;-81
2021/08/29 06:49:28;;;;;;;11.40;6.70;;;;;;;17.67;72.95;100465.63;5001051;28;20062;-82
2021/08/29 06:51:56;;;;;;;10.48;6.32;;;;;;;17.60;72.26;100469.88;5000257;28;20644;-82
2021/08/29 06:54:25;;;;;;;13.63;6.90;;;;;;;17.57;72.95;100462.16;5020257;28;20050;-81
2021/08/29 06:56:52;;;;;;;13.05;7.32;;;;;;;17.60;73.28;100457.81;5020205;28;20050;-81
2021/08/29 06:59:20;;;;;;;14.77;7.43;;;;;;;17.61;73.41;100459.44;5015585;28;20066;-81
2021/08/29 07:01:47;;;;;;;9.50;6.85;;;;;;;17.63;73.49;100462.69;5021267;28;20104;-81
2021/08/29 07:04:15;;;;;;;11.25;6.95;;;;;;;17.66;73.21;100470.44;5021562;28;20160;-82
2021/08/29 07:06:43;;;;;;;10.95;6.82;;;;;;;17.67;73.36;100468.44;5018993;28;20050;-81
2021/08/29 07:09:10;;;;;;;11.40;7.03;;;;;;;17.73;73.58;100470.63;5021266;28;20061;-82
2021/08/29 07:11:39;;;;;;;8.95;6.28;;;;;;;17.80;73.44;100464.34;5019374;28;20062;-84
2021/08/29 07:14:07;;;;;;;9.07;5.93;;;;;;;17.83;73.34;100455.22;5021285;28;20049;-82
2021/08/29 07:16:34;;;;;;;9.88;6.72;;;;;;;17.89;73.01;100456.56;5023833;28;20045;-81
2021/08/29 07:19:01;;;;;;;9.45;6.32;;;;;;;17.89;72.80;100465.03;5002998;28;20054;-81
2021/08/29 07:21:29;;;;;;;8.23;6.45;;;;;;;17.96;72.01;100453.09;5002828;28;20054;-81
2021/08/29 07:23:59;;;;;;;8.48;6.57;;;;;;;17.94;72.97;100461.09;5020351;28;20053;-82
2021/08/29 07:26:26;;;;;;;9.57;6.50;;;;;;;17.92;72.50;100457.84;5042641;28;20060;-82
2021/08/29 07:28:55;;;;;;;11.00;6.47;;;;;;;17.91;73.33;100461.81;5025042;28;20054;-82
2021/08/29 07:31:22;;;;;;;9.60;6.80;;;;;;;18.01;72.63;100455.63;5020463;28;20061;-82
2021/08/29 07:33:50;;;;;;;7.60;5.93;;;;;;;18.02;72.90;100454.47;5011645;28;20050;-82
2021/08/29 07:36:17;;;;;;;8.82;6.32;;;;;;;18.02;72.71;100455.28;5021136;28;20058;-82
2021/08/29 07:38:44;;;;;;;11.20;6.80;;;;;;;18.06;72.95;100452.56;5025911;28;20406;-82
2021/08/29 07:41:12;;;;;;;9.75;5.93;;;;;;;18.03;72.85;100453.25;5041345;28;20509;-82
2021/08/29 07:43:39;;;;;;;10.13;5.75;;;;;;;18.12;72.82;100447.44;5041224;28;20057;-79
2021/08/29 07:46:08;;;;;;;9.43;6.53;;;;;;;18.17;73.49;100453.63;5031575;28;20406;-80
2021/08/29 07:48:36;;;;;;;8.05;5.68;;;;;;;18.20;73.17;100455.69;5037735;28;20051;-82
2021/08/29 07:51:03;;;;;;;9.13;5.35;;;;;;;18.25;73.43;100457.44;5041355;28;20057;-81
2021/08/29 07:53:31;;;;;;;7.40;4.70;;;;;;;18.26;72.74;100444.94;5041844;28;20053;-81
2021/08/29 07:55:59;;;;;;;8.57;4.82;;;;;;;18.22;72.83;100452.50;5028749;28;20054;-79
2021/08/29 07:58:26;;;;;;;5.40;4.05;;;;;;;18.29;71.82;100452.69;5020470;28;20050;-79
2021/08/29 08:00:55;;;;;;;9.20;5.10;;;;;;;18.21;72.15;100446.06;5021826;28;20045;-80
2021/08/29 08:03:25;;;;;;;7.93;4.43;;;;;;;18.15;72.07;100444.69;5023144;28;20050;-78
2021/08/29 08:05:53;;;;;;;6.22;4.50;;;;;;;18.12;72.23;100441.78;5023446;28;20057;-80
2021/08/29 08:08:20;;;;;;;8.50;4.65;;;;;;;18.13;72.43;100438.63;5022415;28;20065;-80
2021/08/29 08:10:48;;;;;;;6.55;4.00;;;;;;;18.20;72.06;100446.41;5008694;28;20053;-80
2021/08/29 08:13:16;;;;;;;7.25;4.13;;;;;;;18.25;72.23;100441.31;5040520;28;20045;-79
2021/08/29 08:15:43;;;;;;;7.78;3.90;;;;;;;18.30;72.10;100443.03;5043592;28;20045;-80
2021/08/29 08:18:11;;;;;;;7.38;3.50;;;;;;;18.32;72.17;100440.66;5024877;28;20054;-81
2021/08/29 08:20:40;;;;;;;5.82;3.60;;;;;;;18.21;72.54;100436.78;5022573;28;20058;-80
2021/08/29 08:23:10;;;;;;;6.80;3.50;;;;;;;18.22;72.61;100436.41;5020096;28;20060;-80
2021/08/29 08:25:37;;;;;;;5.43;3.47;;;;;;;18.26;72.84;100436.50;5022639;28;20360;-80
2021/08/29 08:28:05;;;;;;;5.53;3.60;;;;;;;18.26;73.05;100444.94;5042484;28;20075;-81
2021/08/29 08:30:34;;;;;;;4.45;3.25;;;;;;;18.23;72.21;100438.06;5041531;28;20046;-81
2021/08/29 08:33:03;;;;;;;7.30;3.85;;;;;;;18.22;72.61;100439.22;5032361;28;20061;-79
2021/08/29 08:35:30;;;;;;;4.35;2.67;;;;;;;18.21;72.83;100443.25;5021967;28;20061;-80
2021/08/29 08:37:59;;;;;;;5.50;3.20;;;;;;;18.30;73.23;100445.03;5022978;28;20175;-81
2021/08/29 08:40:37;;;;;;;4.57;2.88;;;;;;;18.31;72.99;100436.22;5023210;28;20056;-80
2021/08/29 08:43:08;;;;;;;5.35;2.92;;;;;;;18.47;72.18;100438.97;5023033;28;20050;-80
2021/08/29 08:45:37;;;;;;;3.92;2.53;;;;;;;18.45;71.85;100432.88;5021274;28;20049;-80
2021/08/29 08:48:06;;;;;;;4.75;2.97;;;;;;;18.50;72.38;100432.63;5021984;28;20386;-80
2021/08/29 08:50:36;;;;;;;6.25;3.58;;;;;;;18.49;72.67;100432.97;5020497;28;20498;-81
2021/08/29 08:53:05;;;;;;;4.53;2.72;;;;;;;18.57;71.89;100438.41;5020536;28;20054;-81
2021/08/29 08:55:33;;;;;;;;;;;;;;;18.51;71.06;100442.69;5021742;28;20058;-78
2021/08/29 08:58:02;;;;;;;3.05;2.55;;;;;;;18.54;72.07;100436.31;5021051;28;19921;-80
2021/08/29 09:00:32;;;;;;;4.78;2.47;;;;;;;18.55;72.42;100442.78;5021175;28;20054;-80
2021/08/29 09:03:01;;;;;;;4.50;2.33;;;;;;;18.51;72.74;100439.88;5021174;28;20074;-80
2021/08/29 09:05:32;;;;;;;2.60;1.97;;;;;;;18.51;72.82;100439.88;5021580;28;20054;-81
2021/08/29 09:07:59;;;;;;;3.28;2.10;;;;;;;18.54;72.74;100439.16;5020851;28;20483;-80
2021/08/29 09:10:28;;;;;;;4.45;1.70;;;;;;;18.45;72.52;100436.50;5020897;28;20050;-80
2021/08/29 09:12:57;;;;;;;3.42;1.83;;;;;;;18.49;72.90;100428.13;5021545;28;20058;-80
2021/08/29 09:15:25;;;;;;;3.00;2.00;;;;;;;18.60;73.05;100425.56;5021336;28;20061;-80
2021/08/29 09:17:54;;;;;;;3.53;2.00;;;;;;;18.65;73.05;100431.72;5020688;28;20061;-80
2021/08/29 09:20:25;;;;;;;3.25;1.80;;;;;;;18.70;72.91;100427.78;5020416;28;20056;-80
2021/08/29 09:22:57;;;;;;;2.78;1.65;;;;;;;18.69;72.55;100429.00;5021404;28;20059;-80
2021/08/29 09:25:26;;;;;;;2.45;1.90;;;;;;;18.64;72.55;100432.91;5037229;28;20061;-80
2021/08/29 09:27:57;;;;;;;3.88;1.90;;;;;;;18.68;73.04;100427.34;5041786;28;20057;-80
2021/08/29 09:30:26;;;;;;;3.42;1.58;;;;;;;18.62;73.17;100435.28;5046052;28;20069;-79
2021/08/29 09:32:56;;;;;;;2.60;1.60;;;;;;;18.75;72.68;100426.66;5040944;28;20056;-80
2021/08/29 09:35:26;;;;;;;4.03;1.73;;;;;;;18.77;72.78;100427.13;5023973;28;20065;-80
2021/08/29 09:37:54;;;;;;;1.85;1.30;;;;;;;18.66;72.54;100426.88;5029936;28;20053;-79
2021/08/29 09:40:23;;;;;;;3.88;1.80;;;;;;;18.76;72.63;100431.94;5029701;28;20046;-78
2021/08/29 09:42:54;;;;;;;;;;;;;;;18.78;71.29;100431.59;5021270;28;20054;-79
2021/08/29 09:45:31;;;;;;;3.10;1.50;;;;;;;18.74;72.51;100428.69;5020882;28;19928;-80
2021/08/29 09:48:03;;;;;;;2.65;1.27;;;;;;;18.78;72.48;100426.78;5020909;28;20056;-79
2021/08/29 09:50:32;;;;;;;3.03;1.40;;;;;;;18.84;72.18;100424.47;5020962;28;20057;-78
2021/08/29 09:53:13;;;;;;;3.13;1.42;;;;;;;18.91;71.46;100430.25;5020576;28;20058;-81
2021/08/29 09:55:42;;;;;;;2.22;1.27;;;;;;;18.92;72.38;100431.91;5020930;28;20064;-78
2021/08/29 09:58:24;;;;;;;2.05;1.20;;;;;;;18.93;71.94;100430.72;5039899;28;20410;-80
2021/08/29 10:01:13;;;;;;;2.35;1.48;;;;;;;18.92;72.62;100431.91;5040121;28;20406;-79
2021/08/29 10:03:42;;;;;;;1.50;1.15;;;;;;;18.98;72.62;100421.97;5040929;28;20486;-80
2021/08/29 10:06:21;;;;;;;1.73;1.20;;;;;;;18.94;71.46;100435.19;5041064;28;20052;-81
2021/08/29 10:08:49;;;;;;;1.63;1.20;;;;;;;18.98;72.82;100435.22;5040712;28;20061;-80
2021/08/29 10:11:18;;;;;;;1.70;1.23;;;;;;;18.96;72.55;100429.97;5040346;28;20053;-80
2021/08/29 10:13:46;;;;;;;2.00;1.20;;;;;;;18.91;72.44;100426.63;5040262;28;20053;-79
2021/08/29 10:16:17;;;;;;;1.60;1.10;;;;;;;18.80;72.28;100426.41;5040103;28;20056;-79
2021/08/29 10:18:47;;;;;;;1.70;1.30;;;;;;;18.85;72.11;100426.09;5022774;28;20049;-80
2021/08/29 10:21:17;;;;;;;1.70;1.42;;;;;;;18.95;72.65;100430.34;5003699;28;20050;-81
2021/08/29 10:23:48;;;;;;;2.05;1.60;;;;;;;19.02;71.97;100428.50;5020744;28;20053;-80
2021/08/29 10:26:18;;;;;;;2.55;1.73;;;;;;;19.09;72.38;100422.16;5004313;28;20061;-81
2021/08/29 10:28:45;;;;;;;;;;;;;;;19.32;69.27;100425.00;5021538;28;20076;-79
2021/08/29 10:31:18;;;;;;;2.47;2.20;;;;;;;19.32;71.07;100427.84;5020820;28;20305;-81
2021/08/29 10:33:50;;;;;;;4.43;2.90;;;;;;;19.35;70.20;100421.44;5021145;28;20053;-80
2021/08/29 10:36:26;;;;;;;3.22;2.92;;;;;;;19.33;70.45;100428.66;5021780;28;20061;-80
2021/08/29 10:38:54;;;;;;;3.50;3.20;;;;;;;19.43;70.06;100428.03;5026986;28;20057;-81
2021/08/29 10:41:22;;;;;;;4.47;4.07;;;;;;;19.46;70.46;100428.09;5026851;28;20057;-79
2021/08/29 10:43:50;;;;;;;4.23;3.80;;;;;;;19.63;70.55;100420.28;5044837;28;20054;-81
2021/08/29 10:46:19;;;;;;;4.07;3.67;;;;;;;19.80;69.43;100425.47;5045910;28;20049;-80
2021/08/29 10:48:47;;;;;;;;;;;;;;;19.73;68.09;100427.38;5044973;28;20065;-81
2021/08/29 10:51:17;;;;;;;4.72;3.72;;;;;;;19.96;68.75;100422.50;5043776;28;19921;-81
2021/08/29 10:53:50;;;;;;;3.53;3.22;;;;;;;19.97;69.32;100428.94;5043496;28;20053;-80
2021/08/29 10:56:31;;;;;;;3.60;3.30;;;;;;;20.08;68.46;100419.44;5011335;28;20062;-80
2021/08/29 10:59:30;;;;;;;3.70;3.40;;;;;;;20.19;68.07;100424.47;5025005;28;20061;-81
2021/08/29 11:02:13;;;;;;;4.15;3.75;;;;;;;20.16;67.11;100425.19;5025397;28;20057;-81
2021/08/29 11:04:53;;;;;;;4.32;3.75;;;;;;;20.10;68.31;100427.56;5030702;28;20060;-81
2021/08/29 11:07:47;;;;;;;4.72;4.32;;;;;;;20.13;67.54;100421.13;5025025;28;20066;-80
2021/08/29 11:10:46;;;;;;;6.07;5.10;;;;;;;20.13;68.28;100425.97;5024188;28;20054;-79
2021/08/29 11:13:36;;;;;;;5.18;4.68;;;;;;;20.02;67.40;100423.00;5027196;28;20046;-80
2021/08/29 11:16:18;;;;;;;4.35;3.95;;;;;;;19.99;66.85;100421.75;5022814;28;20054;-81
2021/08/29 11:19:13;;;;;;;5.38;4.88;;;;;;;20.04;68.02;100417.78;5024259;28;20061;-80
2021/08/29 11:22:18;;;;;;;4.35;3.97;;;;;;;19.93;67.72;100428.91;5030589;28;20065;-80
2021/08/29 11:25:00;;;;;;;4.43;4.03;;;;;;;19.91;67.76;100424.81;5030361;28;20053;-80
2021/08/29 11:28:08;;;;;;;4.55;4.13;;;;;;;19.98;68.00;100428.59;5024572;28;20046;-80
2021/08/29 11:30:47;;;;;;;4.50;4.10;;;;;;;20.08;67.80;100413.00;5025625;28;20046;-80
2021/08/29 11:33:25;;;;;;;3.58;3.28;;;;;;;20.08;67.20;100422.28;5024095;28;20046;-80
2021/08/29 11:35:54;;;;;;;4.00;3.50;;;;;;;20.14;66.55;100421.94;5024224;28;20065;-81